createdAt,value
2023-02-01T00:00:11.992Z,6.45
2023-02-01T00:02:40.975Z,6.73
2023-02-01T00:05:10.460Z,6.83
2023-02-01T00:07:37.439Z,6.78
2023-02-01T00:10:05.077Z,5.86
2023-02-01T00:12:31.612Z,6.71
2023-02-01T00:14:57.714Z,6.34
2023-02-01T00:17:23.846Z,5.77
2023-02-01T00:19:49.926Z,6.52
2023-02-01T00:22:15.994Z,6.42
2023-02-01T00:24:42.116Z,6.38
2023-02-01T00:27:08.177Z,6.25
2023-02-01T00:29:34.335Z,6.48
2023-02-01T00:32:00.462Z,6.33
2023-02-01T00:34:26.675Z,6.22
2023-02-01T00:36:52.719Z,6.38
2023-02-01T00:39:18.760Z,6.24
2023-02-01T00:41:44.849Z,6.68
2023-02-01T00:44:10.982Z,6.52
2023-02-01T00:46:37.374Z,6.25
2023-02-01T00:49:03.641Z,6.67
2023-02-01T00:51:29.909Z,4.85
2023-02-01T00:53:56.347Z,6.35
2023-02-01T00:56:22.693Z,6.39
2023-02-01T00:58:49.128Z,6.27
2023-02-01T01:01:18.627Z,6.19
2023-02-01T01:03:47.520Z,6.45
2023-02-01T01:06:15.926Z,6.58
2023-02-01T01:08:42.628Z,6.36
2023-02-01T01:11:17.356Z,6.35
2023-02-01T01:13:43.947Z,6.62
2023-02-01T01:16:11.158Z,6.76
2023-02-01T01:18:37.416Z,6.58
2023-02-01T01:21:07.776Z,6.57
2023-02-01T01:23:35.001Z,6.60
2023-02-01T01:26:01.489Z,5.69
2023-02-01T01:28:27.509Z,6.63
2023-02-01T01:30:53.702Z,6.63
2023-02-01T01:33:19.844Z,6.62
2023-02-01T01:35:45.906Z,6.50
2023-02-01T01:38:12.000Z,6.42
2023-02-01T01:40:38.935Z,6.26
2023-02-01T01:43:14.248Z,5.56
2023-02-01T01:45:40.412Z,6.51
2023-02-01T01:48:12.347Z,6.30
2023-02-01T01:50:43.163Z,6.47
2023-02-01T01:53:12.539Z,6.37
2023-02-01T01:55:41.874Z,5.44
2023-02-01T01:58:11.096Z,6.55
2023-02-01T02:00:37.651Z,6.65
2023-02-01T02:03:25.952Z,6.63
2023-02-01T02:05:54.414Z,6.66
2023-02-01T02:08:21.137Z,6.21
2023-02-01T02:11:01.311Z,6.43
2023-02-01T02:13:37.722Z,5.69
2023-02-01T02:16:15.955Z,6.49
2023-02-01T02:18:57.707Z,6.74
2023-02-01T02:21:29.674Z,6.31
2023-02-01T02:24:10.176Z,6.42
2023-02-01T02:26:53.200Z,5.93
2023-02-01T02:29:31.554Z,5.90
2023-02-01T02:32:12.873Z,5.94
2023-02-01T02:34:47.179Z,5.93
2023-02-01T02:37:20.204Z,5.72
2023-02-01T02:40:06.925Z,5.82
2023-02-01T02:43:02.000Z,5.76
2023-02-01T02:46:01.884Z,5.99
2023-02-01T02:48:41.027Z,5.74
2023-02-01T02:51:40.254Z,6.13
2023-02-01T02:54:32.012Z,5.98
2023-02-01T02:57:17.992Z,6.07
2023-02-01T03:00:04.667Z,6.00
2023-02-01T03:02:49.891Z,6.25
2023-02-01T03:07:45.005Z,6.34
2023-02-01T03:10:18.129Z,5.87
2023-02-01T03:12:56.666Z,6.25
2023-02-01T03:15:43.042Z,6.23
2023-02-01T03:18:51.508Z,6.38
2023-02-01T03:21:23.630Z,6.38
2023-02-01T03:23:49.850Z,5.53
2023-02-01T03:26:18.446Z,6.14
2023-02-01T03:28:50.650Z,6.35
2023-02-01T03:31:16.827Z,6.34
2023-02-01T03:33:43.057Z,6.46
2023-02-01T03:36:26.379Z,6.26
2023-02-01T03:39:05.933Z,6.43
2023-02-01T03:42:08.185Z,6.29
2023-02-01T03:44:58.338Z,6.30
2023-02-01T03:47:26.474Z,6.43
2023-02-01T03:49:59.602Z,6.45
2023-02-01T03:52:32.798Z,6.49
2023-02-01T03:54:59.111Z,6.36
2023-02-01T03:57:32.111Z,6.51
2023-02-01T04:00:08.132Z,6.63
2023-02-01T04:02:34.822Z,6.19
2023-02-01T04:05:00.881Z,6.37
2023-02-01T04:07:26.938Z,6.77
2023-02-01T04:09:52.969Z,6.79
2023-02-01T04:12:19.057Z,6.59
2023-02-01T04:14:45.113Z,6.50
2023-02-01T04:17:11.170Z,6.59
2023-02-01T04:19:37.214Z,6.64
2023-02-01T04:22:03.274Z,6.52
2023-02-01T04:24:29.339Z,6.50
2023-02-01T04:26:55.423Z,6.59
2023-02-01T04:29:21.488Z,6.39
2023-02-01T04:31:47.693Z,6.59
2023-02-01T04:34:13.826Z,6.67
2023-02-01T04:36:39.892Z,6.59
2023-02-01T04:39:05.965Z,6.55
2023-02-01T04:41:32.050Z,6.38
2023-02-01T04:43:58.172Z,6.41
2023-02-01T04:46:24.346Z,6.42
2023-02-01T04:48:50.455Z,6.51
2023-02-01T04:51:18.318Z,6.44
2023-02-01T04:53:45.127Z,6.44
2023-02-01T04:56:11.224Z,6.29
2023-02-01T04:58:37.315Z,6.18
2023-02-01T05:01:07.225Z,6.65
2023-02-01T05:03:33.977Z,6.42
2023-02-01T05:06:00.683Z,6.41
2023-02-01T05:08:27.354Z,6.55
2023-02-01T05:10:53.597Z,5.64
2023-02-01T05:13:38.257Z,6.52
2023-02-01T05:16:04.795Z,6.48
2023-02-01T05:18:30.882Z,6.39
2023-02-01T05:20:57.114Z,6.55
2023-02-01T05:23:23.207Z,5.98
2023-02-01T05:25:49.283Z,6.41
2023-02-01T05:28:15.347Z,6.43
2023-02-01T05:30:42.438Z,6.02
2023-02-01T05:33:08.555Z,6.52
2023-02-01T05:35:34.684Z,6.40
2023-02-01T05:38:00.783Z,6.33
2023-02-01T05:40:26.893Z,6.36
2023-02-01T05:42:52.992Z,6.41
2023-02-01T05:45:19.118Z,6.63
2023-02-01T05:47:45.238Z,6.25
2023-02-01T05:50:11.302Z,6.42
2023-02-01T05:52:37.407Z,6.56
2023-02-01T05:55:04.147Z,6.35
2023-02-01T05:57:30.435Z,5.48
2023-02-01T05:59:56.860Z,6.32
2023-02-01T06:02:24.536Z,6.30
2023-02-01T06:04:51.235Z,6.11
2023-02-01T06:07:17.385Z,6.25
2023-02-01T06:09:43.461Z,6.10
2023-02-01T06:12:09.568Z,5.74
2023-02-01T06:14:37.387Z,5.25
2023-02-01T06:17:03.747Z,6.08
2023-02-01T06:19:30.607Z,5.94
2023-02-01T06:21:56.659Z,5.83
2023-02-01T06:24:22.709Z,5.92
2023-02-01T06:26:48.896Z,5.49
2023-02-01T06:29:14.989Z,5.54
2023-02-01T06:31:42.689Z,6.28
2023-02-01T06:34:08.829Z,6.16
2023-02-01T06:36:34.972Z,5.90
2023-02-01T06:39:01.052Z,6.39
2023-02-01T06:41:29.326Z,6.03
2023-02-01T06:43:55.799Z,6.44
2023-02-01T06:46:21.904Z,6.04
2023-02-01T06:48:49.474Z,6.40
2023-02-01T06:51:20.071Z,6.44
2023-02-01T06:53:46.122Z,6.34
2023-02-01T06:56:12.187Z,6.47
2023-02-01T06:58:39.393Z,6.24
2023-02-01T07:01:06.857Z,5.24
2023-02-01T07:03:33.075Z,6.07
2023-02-01T07:05:59.268Z,6.08
2023-02-01T07:08:27.499Z,6.59
2023-02-01T07:10:53.551Z,6.27
2023-02-01T07:13:19.837Z,6.28
2023-02-01T07:15:47.867Z,6.42
2023-02-01T07:18:16.667Z,6.56
2023-02-01T07:20:43.059Z,6.59
2023-02-01T07:23:10.583Z,6.61
2023-02-01T07:25:36.942Z,6.59
2023-02-01T07:28:03.110Z,6.50
2023-02-01T07:30:29.195Z,6.63
2023-02-01T07:32:55.324Z,6.63
2023-02-01T07:35:21.632Z,6.40
2023-02-01T07:37:47.703Z,6.55
2023-02-01T07:40:14.303Z,6.52
2023-02-01T07:42:40.375Z,6.67
2023-02-01T07:45:20.579Z,5.42
2023-02-01T07:47:47.263Z,6.23
2023-02-01T07:50:13.396Z,6.54
2023-02-01T07:52:40.339Z,6.30
2023-02-01T07:55:07.264Z,6.69
2023-02-01T07:57:33.310Z,6.52
2023-02-01T08:00:17.669Z,6.78
2023-02-01T08:02:43.735Z,6.70
2023-02-01T08:05:09.776Z,6.36
2023-02-01T08:07:35.869Z,6.84
2023-02-01T08:10:02.199Z,6.66
2023-02-01T08:12:28.307Z,6.29
2023-02-01T08:14:56.670Z,6.24
2023-02-01T08:17:22.743Z,6.56
2023-02-01T08:19:48.802Z,6.55
2023-02-01T08:22:14.915Z,6.77
2023-02-01T08:24:41.993Z,6.52
2023-02-01T08:27:08.129Z,6.83
2023-02-01T08:29:34.183Z,6.65
2023-02-01T08:32:00.342Z,6.71
2023-02-01T08:34:26.431Z,6.78
2023-02-01T08:36:57.675Z,6.76
2023-02-01T08:39:23.902Z,6.64
2023-02-01T08:42:10.058Z,6.86
2023-02-01T08:44:36.757Z,6.87
2023-02-01T08:47:03.596Z,6.75
2023-02-01T08:49:29.952Z,6.80
2023-02-01T08:51:58.430Z,6.78
2023-02-01T08:54:27.099Z,6.59
2023-02-01T08:56:54.743Z,6.82
2023-02-01T08:59:20.856Z,7.01
2023-02-01T09:01:46.912Z,6.83
2023-02-01T09:04:13.041Z,6.94
2023-02-01T09:06:41.246Z,6.87
2023-02-01T09:09:07.336Z,6.95
2023-02-01T09:11:33.448Z,7.32
2023-02-01T09:13:59.671Z,7.31
2023-02-01T09:16:26.216Z,7.14
2023-02-01T09:18:56.519Z,7.14
2023-02-01T09:21:34.255Z,7.19
2023-02-01T09:24:00.378Z,7.19
2023-02-01T09:26:32.101Z,7.14
2023-02-01T09:29:00.648Z,6.94
2023-02-01T09:31:26.895Z,7.27
2023-02-01T09:33:53.048Z,7.31
2023-02-01T09:36:20.048Z,7.18
2023-02-01T09:38:52.875Z,7.06
2023-02-01T09:41:44.427Z,7.35
2023-02-01T09:44:25.739Z,6.71
2023-02-01T09:46:57.300Z,7.66
2023-02-01T09:49:28.991Z,7.52
2023-02-01T09:51:57.256Z,7.54
2023-02-01T09:54:26.154Z,7.74
2023-02-01T09:57:20.005Z,7.80
2023-02-01T10:00:01.385Z,7.69
2023-02-01T10:02:28.795Z,7.95
2023-02-01T10:04:58.403Z,7.58
2023-02-01T10:07:36.729Z,7.92
2023-02-01T10:10:31.047Z,7.88
2023-02-01T10:13:21.948Z,7.52
2023-02-01T10:16:31.661Z,7.63
2023-02-01T10:19:19.287Z,7.56
2023-02-01T10:21:51.804Z,7.74
2023-02-01T10:24:53.135Z,7.63
2023-02-01T10:27:23.770Z,7.65
2023-02-01T10:29:59.988Z,7.63
2023-02-01T10:32:31.955Z,7.64
2023-02-01T10:35:00.345Z,7.31
2023-02-01T10:37:32.386Z,7.35
2023-02-01T10:40:20.141Z,7.20
2023-02-01T10:42:47.033Z,7.54
2023-02-01T10:45:15.514Z,7.77
2023-02-01T10:47:42.150Z,7.36
2023-02-01T10:50:09.858Z,7.30
2023-02-01T10:52:44.158Z,7.50
2023-02-01T10:55:34.246Z,7.48
2023-02-01T10:58:06.002Z,7.25
2023-02-01T11:00:45.264Z,7.77
2023-02-01T11:03:39.009Z,7.75
2023-02-01T11:06:20.277Z,7.71
2023-02-01T11:08:54.719Z,7.85
2023-02-01T11:11:22.447Z,7.38
2023-02-01T11:13:58.223Z,7.35
2023-02-01T11:16:38.051Z,7.79
2023-02-01T11:19:05.152Z,7.55
2023-02-01T11:21:32.128Z,7.01
2023-02-01T11:24:03.101Z,7.35
2023-02-01T11:26:29.643Z,7.62
2023-02-01T11:29:01.354Z,7.99
2023-02-01T11:31:28.297Z,7.07
2023-02-01T11:34:14.860Z,7.71
2023-02-01T11:36:41.239Z,7.13
2023-02-01T11:39:09.854Z,7.92
2023-02-01T11:41:42.385Z,7.84
2023-02-01T11:44:39.877Z,7.79
2023-02-01T11:47:28.532Z,8.18
2023-02-01T11:49:56.992Z,8.43
2023-02-01T11:52:26.055Z,7.93
2023-02-01T11:55:10.262Z,8.08
2023-02-01T11:58:10.358Z,8.00
2023-02-01T12:00:59.621Z,8.07
2023-02-01T12:03:43.497Z,7.87
2023-02-01T12:06:27.928Z,8.26
2023-02-01T12:08:58.907Z,8.09
2023-02-01T12:11:28.042Z,8.45
2023-02-01T12:14:19.647Z,8.33
2023-02-01T12:17:06.920Z,8.16
2023-02-01T12:19:58.560Z,8.41
2023-02-01T12:22:43.248Z,8.33
2023-02-01T12:25:26.022Z,8.10
2023-02-01T12:28:19.135Z,8.13
2023-02-01T12:31:08.575Z,7.87
2023-02-01T12:34:02.964Z,8.07
2023-02-01T12:37:19.945Z,8.13
2023-02-01T12:40:03.911Z,7.65
2023-02-01T12:42:34.977Z,8.15
2023-02-01T12:45:15.136Z,8.32
2023-02-01T12:47:57.973Z,8.20
2023-02-01T12:50:28.841Z,7.24
2023-02-01T12:53:02.103Z,8.54
2023-02-01T12:55:35.898Z,8.70
2023-02-01T12:58:05.085Z,8.34
2023-02-01T13:00:41.807Z,8.29
2023-02-01T13:03:26.757Z,8.18
2023-02-01T13:06:02.948Z,8.13
2023-02-01T13:08:47.819Z,7.71
2023-02-01T13:11:28.729Z,8.06
2023-02-01T13:14:46.614Z,8.07
2023-02-01T13:17:20.636Z,7.97
2023-02-01T13:19:53.822Z,7.84
2023-02-01T13:22:30.867Z,7.84
2023-02-01T13:25:00.176Z,7.89
2023-02-01T13:27:30.599Z,7.87
2023-02-01T13:29:56.642Z,7.61
2023-02-01T13:33:51.343Z,7.63
2023-02-01T13:35:17.596Z,7.66
2023-02-01T13:38:03.172Z,7.36
2023-02-01T13:40:42.425Z,7.34
2023-02-01T13:43:14.969Z,7.34
2023-02-01T13:45:48.281Z,7.35
2023-02-01T13:48:21.337Z,7.33
2023-02-01T13:50:52.064Z,7.18
2023-02-01T13:53:23.972Z,7.18
2023-02-01T13:55:58.231Z,7.19
2023-02-01T13:58:34.784Z,7.37
2023-02-01T14:01:30.339Z,7.44
2023-02-01T14:04:01.532Z,7.01
2023-02-01T14:06:27.685Z,7.15
2023-02-01T14:09:15.042Z,7.09
2023-02-01T14:11:44.299Z,6.94
2023-02-01T14:14:16.416Z,6.80
2023-02-01T14:16:54.724Z,7.11
2023-02-01T14:19:29.034Z,7.03
2023-02-01T14:22:01.737Z,6.76
2023-02-01T14:24:33.198Z,7.08
2023-02-01T14:27:01.428Z,6.61
2023-02-01T14:29:39.034Z,6.88
2023-02-01T14:32:18.407Z,6.59
2023-02-01T14:34:47.506Z,6.87
2023-02-01T14:37:22.612Z,7.08
2023-02-01T14:40:05.123Z,7.06
2023-02-01T14:42:44.091Z,6.79
2023-02-01T14:45:19.651Z,7.09
2023-02-01T14:47:52.779Z,7.04
2023-02-01T14:50:32.653Z,7.05
2023-02-01T14:53:07.048Z,7.17
2023-02-01T14:55:52.402Z,6.84
2023-02-01T14:58:30.603Z,7.06
2023-02-01T15:01:19.405Z,7.01
2023-02-01T15:04:07.157Z,7.13
2023-02-01T15:06:37.967Z,6.99
2023-02-01T15:09:17.016Z,6.92
2023-02-01T15:11:58.407Z,7.05
2023-02-01T15:14:25.422Z,6.87
2023-02-01T15:16:54.071Z,7.28
2023-02-01T15:19:22.685Z,7.17
2023-02-01T15:21:52.143Z,7.22
2023-02-01T15:24:26.913Z,7.15
2023-02-01T15:26:54.442Z,6.89
2023-02-01T15:29:25.755Z,7.28
2023-02-01T15:31:52.760Z,7.24
2023-02-01T15:34:19.798Z,7.33
2023-02-01T15:37:01.537Z,7.13
2023-02-01T15:39:30.843Z,7.20
2023-02-01T15:42:01.162Z,7.27
2023-02-01T15:44:41.471Z,7.14
2023-02-01T15:47:17.384Z,7.48
2023-02-01T15:49:46.480Z,7.10
2023-02-01T15:52:36.379Z,7.37
2023-02-01T15:55:05.876Z,7.05
2023-02-01T15:57:34.862Z,7.33
2023-02-01T16:00:07.928Z,7.04
2023-02-01T16:02:35.563Z,7.38
2023-02-01T16:05:02.999Z,3.91
2023-02-01T16:07:33.912Z,7.46
2023-02-01T16:10:07.145Z,7.28
2023-02-01T16:12:46.959Z,7.32
2023-02-01T16:15:13.781Z,6.82
2023-02-01T16:17:40.066Z,7.11
2023-02-01T16:20:06.832Z,7.25
2023-02-01T16:22:32.877Z,7.17
2023-02-01T16:24:58.919Z,7.01
2023-02-01T16:27:25.114Z,7.08
2023-02-01T16:29:51.270Z,7.36
2023-02-01T16:32:19.469Z,7.08
2023-02-01T16:34:46.405Z,7.00
2023-02-01T16:37:23.781Z,6.91
2023-02-01T16:39:49.872Z,7.02
2023-02-01T16:42:16.832Z,7.28
2023-02-01T16:44:43.588Z,6.89
2023-02-01T16:47:17.056Z,6.22
2023-02-01T16:49:43.421Z,6.94
2023-02-01T16:52:23.430Z,7.23
2023-02-01T16:54:49.914Z,7.38
2023-02-01T16:57:18.008Z,7.36
2023-02-01T16:59:47.689Z,7.12
2023-02-01T17:02:16.443Z,7.34
2023-02-01T17:04:42.889Z,6.67
2023-02-01T17:07:14.386Z,7.48
2023-02-01T17:09:40.593Z,7.26
2023-02-01T17:12:07.012Z,7.52
2023-02-01T17:14:38.143Z,7.13
2023-02-01T17:17:04.827Z,7.26
2023-02-01T17:19:32.436Z,7.08
2023-02-01T17:21:58.924Z,4.53
2023-02-01T17:24:33.277Z,7.44
2023-02-01T17:27:05.267Z,7.76
2023-02-01T17:29:31.349Z,7.59
2023-02-01T17:31:59.720Z,7.21
2023-02-01T17:34:25.853Z,7.17
2023-02-01T17:36:52.034Z,6.82
2023-02-01T17:39:37.054Z,6.89
2023-02-01T17:42:04.773Z,5.98
2023-02-01T17:44:31.323Z,6.92
2023-02-01T17:46:59.006Z,7.24
2023-02-01T17:49:28.042Z,6.80
2023-02-01T17:51:55.462Z,7.03
2023-02-01T17:54:21.610Z,7.24
2023-02-01T17:56:47.899Z,7.06
2023-02-01T17:59:15.273Z,6.63
2023-02-01T18:01:42.097Z,6.55
2023-02-01T18:04:12.753Z,6.78
2023-02-01T18:06:38.910Z,6.82
2023-02-01T18:09:05.403Z,6.99
2023-02-01T18:11:32.897Z,6.97
2023-02-01T18:13:59.047Z,5.81
2023-02-01T18:16:27.567Z,6.51
2023-02-01T18:18:53.621Z,7.02
2023-02-01T18:21:21.624Z,7.13
2023-02-01T18:23:48.376Z,6.99
2023-02-01T18:26:16.288Z,6.53
2023-02-01T18:28:42.792Z,6.69
2023-02-01T18:31:26.899Z,6.72
2023-02-01T18:33:54.727Z,6.48
2023-02-01T18:36:20.891Z,6.71
2023-02-01T18:38:47.035Z,6.91
2023-02-01T18:41:15.110Z,6.09
2023-02-01T18:43:41.490Z,5.94
2023-02-01T18:46:10.177Z,5.26
2023-02-01T18:48:36.521Z,6.93
2023-02-01T18:51:03.169Z,6.40
2023-02-01T18:53:29.421Z,6.89
2023-02-01T18:55:57.065Z,6.51
2023-02-01T18:58:25.592Z,6.70
2023-02-01T19:00:53.559Z,6.65
2023-02-01T19:03:20.042Z,6.91
2023-02-01T19:05:47.439Z,6.38
2023-02-01T19:08:13.502Z,6.59
2023-02-01T19:10:41.785Z,6.89
2023-02-01T19:13:12.559Z,6.52
2023-02-01T19:15:39.945Z,6.82
2023-02-01T19:18:07.126Z,7.17
2023-02-01T19:20:33.232Z,6.62
2023-02-01T19:22:59.288Z,7.01
2023-02-01T19:25:27.641Z,6.77
2023-02-01T19:27:53.833Z,7.01
2023-02-01T19:30:21.316Z,6.87
2023-02-01T19:32:47.905Z,6.93
2023-02-01T19:35:18.502Z,6.81
2023-02-01T19:37:45.747Z,6.74
2023-02-01T19:40:15.175Z,6.91
2023-02-01T19:42:41.306Z,6.60
2023-02-01T19:45:08.369Z,6.86
2023-02-01T19:47:34.532Z,6.68
2023-02-01T19:50:00.701Z,6.58
2023-02-01T19:52:26.988Z,6.32
2023-02-01T19:54:53.099Z,6.48
2023-02-01T19:57:19.173Z,5.20
2023-02-01T19:59:45.239Z,6.64
2023-02-01T20:02:14.252Z,6.51
2023-02-01T20:04:40.488Z,6.67
2023-02-01T20:07:10.130Z,6.70
2023-02-01T20:09:37.813Z,6.92
2023-02-01T20:12:04.543Z,6.59
2023-02-01T20:14:30.643Z,6.67
2023-02-01T20:16:56.680Z,6.70
2023-02-01T20:19:22.839Z,6.38
2023-02-01T20:21:48.915Z,6.46
2023-02-01T20:24:16.668Z,6.77
2023-02-01T20:26:44.804Z,6.84
2023-02-01T20:29:15.225Z,6.89
2023-02-01T20:31:41.389Z,6.93
2023-02-01T20:34:08.811Z,6.67
2023-02-01T20:36:34.890Z,6.78
2023-02-01T20:39:01.185Z,6.56
2023-02-01T20:41:27.607Z,6.76
2023-02-01T20:43:53.861Z,6.94
2023-02-01T20:46:20.649Z,6.96
2023-02-01T20:48:48.501Z,6.65
2023-02-01T20:51:16.611Z,6.57
2023-02-01T20:53:43.289Z,6.16
2023-02-01T20:56:12.050Z,6.44
2023-02-01T20:58:38.688Z,5.43
2023-02-01T21:01:05.370Z,6.17
2023-02-01T21:03:31.730Z,5.84
2023-02-01T21:05:59.047Z,6.40
2023-02-01T21:08:27.059Z,6.67
2023-02-01T21:11:04.018Z,6.71
2023-02-01T21:13:35.531Z,6.47
2023-02-01T21:16:02.615Z,6.44
2023-02-01T21:18:29.119Z,6.42
2023-02-01T21:20:55.196Z,6.56
2023-02-01T21:23:21.383Z,6.39
2023-02-01T21:25:47.616Z,6.34
2023-02-01T21:28:13.902Z,6.42
2023-02-01T21:30:40.271Z,6.43
2023-02-01T21:33:07.202Z,6.14
2023-02-01T21:35:33.276Z,6.24
2023-02-01T21:37:59.372Z,6.74
2023-02-01T21:40:25.546Z,6.52
2023-02-01T21:42:51.730Z,6.74
2023-02-01T21:45:17.866Z,6.41
2023-02-01T21:47:44.083Z,6.19
2023-02-01T21:50:15.889Z,6.48
2023-02-01T21:52:42.927Z,6.65
2023-02-01T21:55:09.987Z,6.34
2023-02-01T21:57:36.309Z,6.55
2023-02-01T22:00:04.859Z,6.41
2023-02-01T22:02:31.009Z,6.66
2023-02-01T22:04:57.156Z,6.27
2023-02-01T22:07:23.341Z,6.66
2023-02-01T22:09:49.530Z,6.86
2023-02-01T22:12:15.830Z,6.41
2023-02-01T22:14:44.101Z,6.81
2023-02-01T22:17:12.183Z,6.94
2023-02-01T22:19:39.211Z,6.80
2023-02-01T22:22:05.269Z,6.53
2023-02-01T22:24:31.390Z,6.67
2023-02-01T22:27:13.824Z,6.91
2023-02-01T22:29:41.791Z,6.73
2023-02-01T22:32:08.676Z,6.57
2023-02-01T22:34:34.817Z,6.69
2023-02-01T22:37:00.870Z,6.64
2023-02-01T22:39:26.995Z,6.86
2023-02-01T22:41:53.080Z,6.66
2023-02-01T22:44:19.109Z,6.54
2023-02-01T22:46:45.315Z,6.84
2023-02-01T22:49:11.414Z,6.65
2023-02-01T22:51:37.725Z,6.71
2023-02-01T22:54:03.941Z,6.81
2023-02-01T22:56:34.922Z,6.89
2023-02-01T22:59:06.435Z,6.84
2023-02-01T23:01:33.432Z,6.81
2023-02-01T23:04:01.144Z,6.74
2023-02-01T23:06:27.568Z,6.59
2023-02-01T23:08:55.785Z,6.54
2023-02-01T23:11:22.027Z,6.75
2023-02-01T23:13:48.138Z,6.43
2023-02-01T23:16:14.356Z,6.48
2023-02-01T23:18:40.873Z,7.03
2023-02-01T23:21:15.536Z,6.02
2023-02-01T23:23:52.655Z,6.84
2023-02-01T23:26:19.874Z,6.51
2023-02-01T23:28:46.532Z,5.81
2023-02-01T23:31:13.694Z,6.71
2023-02-01T23:33:40.177Z,7.05
2023-02-01T23:36:09.953Z,6.74
2023-02-01T23:38:36.073Z,7.07
2023-02-01T23:41:04.434Z,6.90
2023-02-01T23:43:49.329Z,6.68
2023-02-01T23:46:16.146Z,6.95
2023-02-01T23:48:43.429Z,7.14
2023-02-01T23:51:10.122Z,7.31
2023-02-01T23:53:36.293Z,7.05
2023-02-01T23:56:02.577Z,6.70
2023-02-01T23:58:28.748Z,6.81
